Flight Track Log - Related Links

Times and Time Zones

All times are in EDT time to prevent confusion due to time zone crossing. See the EGF4129 flight status page for this flight to view local times or setup timezone preferences in your user account.

Time Position Orientation Groundspeed Altitude Reporting Facility
EDT Latitude Longitude Course Direction KTS MPH feet Rate Location/Type
Tue 07:09:27 PM 40.0906 -88.2481 337° Northwest 243 280 5,000  Level Chicago Center
Tue 07:10:00 PM 40.2444 -88.3866 335° Northwest  Level FlightAware Approximate
Tue 07:10:30 PM 40.1514 -88.2969 328° Northwest 254 292 7,900  Level Chicago Center
Tue 07:11:00 PM 40.3140 -88.4269 346° North  Level FlightAware Approximate
Tue 07:11:32 PM 40.2117 -88.3356 334° Northwest 256 295 9,900  Level Chicago Center
Tue 07:12:00 PM 40.3830 -88.4706 330° Northwest  Level FlightAware Approximate
Tue 07:12:34 PM 40.3042 -88.3961 333° Northwest 315 362 10,900  Level Chicago Center
Tue 07:13:00 PM 40.4534 -88.5114 337° Northwest  Level FlightAware Approximate
Tue 07:13:36 PM 40.3872 -88.4500 334° Northwest 332 382 12,200  Level Chicago Center
Tue 07:14:00 PM 40.5241 -88.5518 337° Northwest  Level FlightAware Approximate
Tue 07:14:38 PM 40.4725 -88.5036 334° Northwest 340 391 13,700  Level Chicago Center
Tue 07:15:40 PM 40.5600 -88.5606 334° Northwest 350 403 15,100 1,065 Climbing Chicago Center
Tue 07:16:42 PM 40.6492 -88.6200 333° Northwest 358 412 15,900 435 Climbing Chicago Center
Tue 07:17:44 PM 40.7344 -88.6753 334° Northwest 345 397 16,000 48 Climbing Chicago Center
Tue 07:18:46 PM 40.8322 -88.7342 336° Northwest 322 371 16,000 -484 Level Chicago Center
Tue 07:19:48 PM 40.9250 -88.7192 North 335 386 15,000 -960 Descending Chicago Center
Tue 07:20:51 PM 41.0194 -88.7039 North 342 394 14,000 -1,008 Descending Chicago Center
Tue 07:21:53 PM 41.1131 -88.6881 North 341 392 12,900 -1,016 Descending Chicago Center
Tue 07:22:55 PM 41.2083 -88.6744 North 343 395 11,900 -919 Descending Chicago Center
Tue 07:23:57 PM 41.3197 -88.6581 North 338 389 11,000 -435 Descending Chicago Center
Tue 07:24:59 PM 41.4106 -88.5961 27° Northeast 372 428 11,000  Level Chicago Center
Tue 07:26:01 PM 41.4878 -88.4994 43° Northeast 378 435 11,000  Level Chicago Center
Tue 07:27:03 PM 41.5647 -88.4069 42° Northeast 373 429 11,000  Level Chicago Center
Tue 07:28:05 PM 41.6433 -88.3175 40° Northeast 370 426 11,000  Level Chicago Center
Tue 07:29:07 PM 41.7164 -88.2283 42° Northeast 356 410 11,000 -581 Level Chicago Center
Tue 07:30:09 PM 41.7803 -88.1536 41° Northeast 304 350 9,800 -1,694 Descending Chicago Center
Tue 07:31:11 PM 41.8436 -88.0644 46° Northeast 279 321 7,500 -1,355 Descending Chicago Center
Tue 07:32:13 PM 41.8847 -87.9800 57° Northeast 272 313 7,000 -233 Descending Chicago Center
Tue 07:33:20 PM 41.8833 -87.8667 91° East 218 251 7,000  Level Chicago TRACON
Tue 07:34:18 PM 41.8844 -87.8108 88° East 217 250 7,000 -450 Level Chicago Center
Tue 07:35:20 PM 41.8833 -87.7356 91° East 205 236 6,100 -1,113 Descending Chicago Center
Tue 07:36:22 PM 41.8839 -87.6439 90° East 204 235 4,700 -1,016 Descending Chicago Center
Tue 07:37:24 PM 41.9308 -87.6175 23° Northeast 204 235 4,000 -435 Descending Chicago Center
Tue 07:38:26 PM 41.9553 -87.6667 304° West 183 211 3,800 -194 Descending Chicago Center

Login

Don't have an account? Register now (free) for customized features, flight alerts, and more!